sensor_id;sensor_type;location;lat;lon;timestamp;pressure;altitude;pressure_sealevel;temperature;humidity
5753;BME280;2901;42.140;24.760;2023-07-16T00:01:53;99567.44;;;26.26;80.88
5753;BME280;2901;42.140;24.760;2023-07-16T00:04:18;99571.47;;;26.19;81.46
5753;BME280;2901;42.140;24.760;2023-07-16T00:06:45;99573.66;;;26.13;81.54
5753;BME280;2901;42.140;24.760;2023-07-16T00:09:10;99570.50;;;26.08;81.97
5753;BME280;2901;42.140;24.760;2023-07-16T00:11:36;99571.22;;;26.10;82.03
5753;BME280;2901;42.140;24.760;2023-07-16T00:14:01;99574.75;;;26.10;82.16
5753;BME280;2901;42.140;24.760;2023-07-16T00:16:27;99572.94;;;26.11;82.11
5753;BME280;2901;42.140;24.760;2023-07-16T00:18:53;99572.94;;;26.11;82.22
5753;BME280;2901;42.140;24.760;2023-07-16T00:21:18;99573.16;;;26.08;82.39
5753;BME280;2901;42.140;24.760;2023-07-16T00:23:44;99575.69;;;26.09;81.96
5753;BME280;2901;42.140;24.760;2023-07-16T00:26:09;99578.66;;;26.05;82.01
5753;BME280;2901;42.140;24.760;2023-07-16T00:28:35;99578.56;;;26.06;82.05
5753;BME280;2901;42.140;24.760;2023-07-16T00:31:00;99569.00;;;26.04;82.30
5753;BME280;2901;42.140;24.760;2023-07-16T00:33:26;99585.22;;;26.12;81.26
5753;BME280;2901;42.140;24.760;2023-07-16T00:35:51;99585.22;;;26.12;80.67
5753;BME280;2901;42.140;24.760;2023-07-16T00:38:17;99584.41;;;26.11;80.92
5753;BME280;2901;42.140;24.760;2023-07-16T00:40:43;99580.69;;;26.01;80.94
5753;BME280;2901;42.140;24.760;2023-07-16T00:43:10;99578.41;;;25.95;81.43
5753;BME280;2901;42.140;24.760;2023-07-16T00:45:36;99585.34;;;25.98;81.16
5753;BME280;2901;42.140;24.760;2023-07-16T00:48:02;99585.34;;;25.98;81.20
5753;BME280;2901;42.140;24.760;2023-07-16T00:50:29;99579.06;;;25.99;80.80
5753;BME280;2901;42.140;24.760;2023-07-16T00:52:59;99581.72;;;25.99;81.11
5753;BME280;2901;42.140;24.760;2023-07-16T00:55:25;99578.75;;;25.91;80.93
5753;BME280;2901;42.140;24.760;2023-07-16T00:57:50;99577.56;;;25.82;81.18
5753;BME280;2901;42.140;24.760;2023-07-16T01:00:16;99573.81;;;25.72;81.78
5753;BME280;2901;42.140;24.760;2023-07-16T01:02:42;99577.44;;;25.71;81.91
5753;BME280;2901;42.140;24.760;2023-07-16T01:05:07;99562.16;;;25.62;81.94
5753;BME280;2901;42.140;24.760;2023-07-16T01:07:34;99573.09;;;25.70;81.98
5753;BME280;2901;42.140;24.760;2023-07-16T01:10:01;99564.91;;;25.60;82.04
5753;BME280;2901;42.140;24.760;2023-07-16T01:12:27;99578.19;;;25.73;81.96
5753;BME280;2901;42.140;24.760;2023-07-16T01:14:54;99570.84;;;25.64;82.21
5753;BME280;2901;42.140;24.760;2023-07-16T01:17:20;99576.88;;;25.66;81.95
5753;BME280;2901;42.140;24.760;2023-07-16T01:19:46;99576.81;;;25.67;82.29
5753;BME280;2901;42.140;24.760;2023-07-16T01:22:27;99575.72;;;25.57;82.76
5753;BME280;2901;42.140;24.760;2023-07-16T01:30:31;99579.25;;;25.44;83.16
5753;BME280;2901;42.140;24.760;2023-07-16T01:32:57;99585.59;;;25.55;83.05
5753;BME280;2901;42.140;24.760;2023-07-16T01:35:23;99587.69;;;25.36;83.86
5753;BME280;2901;42.140;24.760;2023-07-16T01:37:48;99584.72;;;25.28;84.19
5753;BME280;2901;42.140;24.760;2023-07-16T01:40:14;99579.63;;;25.25;84.44
5753;BME280;2901;42.140;24.760;2023-07-16T01:42:40;99591.31;;;25.35;84.32
5753;BME280;2901;42.140;24.760;2023-07-16T01:45:06;99582.19;;;25.39;84.17
5753;BME280;2901;42.140;24.760;2023-07-16T01:47:59;99588.91;;;25.45;83.74
5753;BME280;2901;42.140;24.760;2023-07-16T01:50:25;99592.69;;;25.55;83.57
5753;BME280;2901;42.140;24.760;2023-07-16T01:52:50;99589.63;;;25.61;83.17
5753;BME280;2901;42.140;24.760;2023-07-16T01:55:16;99596.53;;;25.63;83.05
5753;BME280;2901;42.140;24.760;2023-07-16T01:57:41;99595.25;;;25.69;82.77
5753;BME280;2901;42.140;24.760;2023-07-16T02:00:07;99591.56;;;25.71;82.54
5753;BME280;2901;42.140;24.760;2023-07-16T02:02:33;99583.81;;;25.68;82.77
5753;BME280;2901;42.140;24.760;2023-07-16T02:04:59;99590.59;;;25.72;82.63
5753;BME280;2901;42.140;24.760;2023-07-16T02:07:24;99589.84;;;25.70;82.95
5753;BME280;2901;42.140;24.760;2023-07-16T02:09:49;99570.19;;;25.60;83.22
5753;BME280;2901;42.140;24.760;2023-07-16T02:12:15;99594.44;;;25.68;82.69
5753;BME280;2901;42.140;24.760;2023-07-16T02:14:40;99593.13;;;25.61;83.48
5753;BME280;2901;42.140;24.760;2023-07-16T02:17:06;99597.59;;;25.61;83.27
5753;BME280;2901;42.140;24.760;2023-07-16T02:19:31;99591.44;;;25.60;83.42
5753;BME280;2901;42.140;24.760;2023-07-16T02:21:56;99596.06;;;25.57;83.60
5753;BME280;2901;42.140;24.760;2023-07-16T02:24:22;99599.47;;;25.59;83.90
5753;BME280;2901;42.140;24.760;2023-07-16T02:26:47;99594.06;;;25.60;83.07
5753;BME280;2901;42.140;24.760;2023-07-16T02:29:13;99592.56;;;25.56;83.32
5753;BME280;2901;42.140;24.760;2023-07-16T02:31:38;99596.53;;;25.63;83.22
5753;BME280;2901;42.140;24.760;2023-07-16T02:34:04;99602.38;;;25.68;83.17
5753;BME280;2901;42.140;24.760;2023-07-16T02:36:29;99598.97;;;25.66;83.19
5753;BME280;2901;42.140;24.760;2023-07-16T02:38:54;99608.94;;;25.63;83.35
5753;BME280;2901;42.140;24.760;2023-07-16T02:41:20;99603.94;;;25.58;83.76
5753;BME280;2901;42.140;24.760;2023-07-16T02:43:46;99605.63;;;25.59;83.33
5753;BME280;2901;42.140;24.760;2023-07-16T02:46:11;99608.06;;;25.62;83.17
5753;BME280;2901;42.140;24.760;2023-07-16T02:48:37;99612.66;;;25.60;83.73
5753;BME280;2901;42.140;24.760;2023-07-16T02:51:02;99599.88;;;25.53;83.77
5753;BME280;2901;42.140;24.760;2023-07-16T02:53:28;99605.31;;;25.51;83.76
5753;BME280;2901;42.140;24.760;2023-07-16T02:55:53;99609.28;;;25.44;84.40
5753;BME280;2901;42.140;24.760;2023-07-16T02:58:19;99607.47;;;25.45;84.06
5753;BME280;2901;42.140;24.760;2023-07-16T03:00:44;99604.50;;;25.49;83.93
5753;BME280;2901;42.140;24.760;2023-07-16T03:03:09;99610.63;;;25.37;84.38
5753;BME280;2901;42.140;24.760;2023-07-16T03:05:35;99614.00;;;25.39;84.56
5753;BME280;2901;42.140;24.760;2023-07-16T03:08:00;99610.13;;;25.45;83.77
5753;BME280;2901;42.140;24.760;2023-07-16T03:10:25;99603.59;;;25.50;84.06
5753;BME280;2901;42.140;24.760;2023-07-16T03:12:52;99606.91;;;25.54;83.70
5753;BME280;2901;42.140;24.760;2023-07-16T03:15:17;99609.81;;;25.49;84.55
5753;BME280;2901;42.140;24.760;2023-07-16T03:17:43;99609.25;;;25.58;83.96
5753;BME280;2901;42.140;24.760;2023-07-16T03:20:08;99602.78;;;25.62;83.68
5753;BME280;2901;42.140;24.760;2023-07-16T03:22:35;99613.09;;;25.67;83.55
5753;BME280;2901;42.140;24.760;2023-07-16T03:25:00;99613.94;;;25.67;83.49
5753;BME280;2901;42.140;24.760;2023-07-16T03:27:25;99619.91;;;25.71;83.48
5753;BME280;2901;42.140;24.760;2023-07-16T03:29:51;99622.34;;;25.74;83.10
5753;BME280;2901;42.140;24.760;2023-07-16T03:32:16;99622.78;;;25.80;82.68
5753;BME280;2901;42.140;24.760;2023-07-16T03:34:42;99625.66;;;25.77;82.69
5753;BME280;2901;42.140;24.760;2023-07-16T03:37:07;99609.41;;;25.82;82.57
5753;BME280;2901;42.140;24.760;2023-07-16T03:39:32;99620.13;;;25.80;82.77
5753;BME280;2901;42.140;24.760;2023-07-16T03:41:58;99624.28;;;25.85;82.40
5753;BME280;2901;42.140;24.760;2023-07-16T03:44:23;99617.34;;;25.82;82.32
5753;BME280;2901;42.140;24.760;2023-07-16T03:46:48;99628.22;;;25.92;82.08
5753;BME280;2901;42.140;24.760;2023-07-16T03:49:14;99628.34;;;26.03;81.72
5753;BME280;2901;42.140;24.760;2023-07-16T03:51:39;99623.47;;;26.09;81.84
5753;BME280;2901;42.140;24.760;2023-07-16T03:54:04;99620.22;;;26.18;81.81
5753;BME280;2901;42.140;24.760;2023-07-16T03:56:30;99618.19;;;26.22;81.49
5753;BME280;2901;42.140;24.760;2023-07-16T03:58:55;99629.38;;;26.27;81.17
5753;BME280;2901;42.140;24.760;2023-07-16T04:01:20;99633.81;;;26.39;80.91
5753;BME280;2901;42.140;24.760;2023-07-16T04:03:46;99633.50;;;26.44;80.72
5753;BME280;2901;42.140;24.760;2023-07-16T04:06:11;99626.59;;;26.54;80.01
5753;BME280;2901;42.140;24.760;2023-07-16T04:08:37;99631.06;;;26.66;79.55
5753;BME280;2901;42.140;24.760;2023-07-16T04:11:04;99619.88;;;26.73;78.64
5753;BME280;2901;42.140;24.760;2023-07-16T04:13:30;99632.56;;;26.83;78.66
5753;BME280;2901;42.140;24.760;2023-07-16T04:15:56;99634.69;;;26.90;78.65
5753;BME280;2901;42.140;24.760;2023-07-16T04:18:23;99635.91;;;26.97;77.90
5753;BME280;2901;42.140;24.760;2023-07-16T04:20:49;99639.19;;;27.01;77.48
5753;BME280;2901;42.140;24.760;2023-07-16T04:23:15;99638.03;;;27.05;77.18
5753;BME280;2901;42.140;24.760;2023-07-16T04:25:40;99639.72;;;27.06;77.09
5753;BME280;2901;42.140;24.760;2023-07-16T04:28:05;99625.81;;;27.02;76.78
5753;BME280;2901;42.140;24.760;2023-07-16T04:30:31;99642.44;;;27.17;76.68
5753;BME280;2901;42.140;24.760;2023-07-16T04:32:56;99647.44;;;27.21;76.46
5753;BME280;2901;42.140;24.760;2023-07-16T04:35:22;99649.03;;;27.24;75.91
5753;BME280;2901;42.140;24.760;2023-07-16T04:37:47;99649.44;;;27.30;75.61
5753;BME280;2901;42.140;24.760;2023-07-16T04:40:12;99639.41;;;27.34;75.71
5753;BME280;2901;42.140;24.760;2023-07-16T04:42:38;99643.88;;;27.33;75.05
5753;BME280;2901;42.140;24.760;2023-07-16T04:45:04;99650.09;;;27.21;75.32
5753;BME280;2901;42.140;24.760;2023-07-16T04:47:30;99655.50;;;27.32;75.04
5753;BME280;2901;42.140;24.760;2023-07-16T04:49:57;99653.13;;;27.41;74.62
5753;BME280;2901;42.140;24.760;2023-07-16T04:52:22;99655.25;;;27.48;74.75
5753;BME280;2901;42.140;24.760;2023-07-16T04:54:48;99657.81;;;27.37;74.15
5753;BME280;2901;42.140;24.760;2023-07-16T04:57:13;99658.03;;;27.34;75.06
5753;BME280;2901;42.140;24.760;2023-07-16T04:59:39;99654.31;;;27.49;74.21
5753;BME280;2901;42.140;24.760;2023-07-16T05:02:05;99657.75;;;27.62;74.50
5753;BME280;2901;42.140;24.760;2023-07-16T05:04:31;99660.59;;;27.72;73.42
5753;BME280;2901;42.140;24.760;2023-07-16T05:06:57;99665.91;;;27.72;72.71
5753;BME280;2901;42.140;24.760;2023-07-16T05:09:22;99667.00;;;27.69;73.02
5753;BME280;2901;42.140;24.760;2023-07-16T05:11:47;99672.88;;;27.86;72.79
5753;BME280;2901;42.140;24.760;2023-07-16T05:14:13;99669.50;;;27.95;71.83
5753;BME280;2901;42.140;24.760;2023-07-16T05:16:38;99671.78;;;28.12;70.85
5753;BME280;2901;42.140;24.760;2023-07-16T05:19:03;99675.50;;;28.09;71.18
5753;BME280;2901;42.140;24.760;2023-07-16T05:21:29;99676.25;;;28.11;70.39
5753;BME280;2901;42.140;24.760;2023-07-16T05:23:54;99682.47;;;28.23;70.74
5753;BME280;2901;42.140;24.760;2023-07-16T05:26:19;99682.38;;;28.35;69.83
5753;BME280;2901;42.140;24.760;2023-07-16T05:28:45;99675.94;;;28.27;69.94
5753;BME280;2901;42.140;24.760;2023-07-16T05:31:10;99679.78;;;28.12;69.49
5753;BME280;2901;42.140;24.760;2023-07-16T05:33:36;99678.84;;;28.24;69.56
5753;BME280;2901;42.140;24.760;2023-07-16T05:36:01;99673.06;;;28.41;68.70
5753;BME280;2901;42.140;24.760;2023-07-16T05:38:26;99687.72;;;28.47;69.21
5753;BME280;2901;42.140;24.760;2023-07-16T05:40:52;99684.59;;;28.53;68.36
5753;BME280;2901;42.140;24.760;2023-07-16T05:43:17;99682.69;;;28.66;67.47
5753;BME280;2901;42.140;24.760;2023-07-16T05:45:43;99680.53;;;28.71;66.60
5753;BME280;2901;42.140;24.760;2023-07-16T05:48:08;99690.59;;;28.90;65.33
5753;BME280;2901;42.140;24.760;2023-07-16T05:50:33;99694.47;;;28.97;65.13
5753;BME280;2901;42.140;24.760;2023-07-16T05:52:59;99690.84;;;28.87;65.27
5753;BME280;2901;42.140;24.760;2023-07-16T05:55:25;99694.13;;;28.68;66.20
5753;BME280;2901;42.140;24.760;2023-07-16T05:57:51;99696.88;;;28.66;66.21
5753;BME280;2901;42.140;24.760;2023-07-16T06:00:16;99689.59;;;28.68;66.59
5753;BME280;2901;42.140;24.760;2023-07-16T06:02:42;99698.59;;;28.90;66.11
5753;BME280;2901;42.140;24.760;2023-07-16T06:05:08;99701.41;;;28.88;65.79
5753;BME280;2901;42.140;24.760;2023-07-16T06:07:33;99694.13;;;28.90;65.69
5753;BME280;2901;42.140;24.760;2023-07-16T06:09:59;99688.16;;;29.09;64.87
5753;BME280;2901;42.140;24.760;2023-07-16T06:12:24;99687.09;;;29.00;64.13
5753;BME280;2901;42.140;24.760;2023-07-16T06:14:50;99693.78;;;28.95;64.15
5753;BME280;2901;42.140;24.760;2023-07-16T06:17:15;99681.88;;;28.99;64.16
5753;BME280;2901;42.140;24.760;2023-07-16T06:19:41;99684.03;;;29.05;64.45
5753;BME280;2901;42.140;24.760;2023-07-16T06:22:06;99680.66;;;29.14;64.05
5753;BME280;2901;42.140;24.760;2023-07-16T06:24:34;99682.13;;;29.07;63.45
5753;BME280;2901;42.140;24.760;2023-07-16T06:26:59;99674.59;;;28.90;63.52
5753;BME280;2901;42.140;24.760;2023-07-16T06:29:24;99687.31;;;28.86;64.22
5753;BME280;2901;42.140;24.760;2023-07-16T06:31:57;99678.72;;;28.71;65.04
5753;BME280;2901;42.140;24.760;2023-07-16T06:34:24;99687.78;;;28.69;66.14
5753;BME280;2901;42.140;24.760;2023-07-16T06:36:49;99679.69;;;28.70;65.72
5753;BME280;2901;42.140;24.760;2023-07-16T06:39:15;99675.22;;;28.71;65.74
5753;BME280;2901;42.140;24.760;2023-07-16T06:41:40;99672.41;;;28.72;65.13
5753;BME280;2901;42.140;24.760;2023-07-16T06:44:05;99678.34;;;28.76;65.22
5753;BME280;2901;42.140;24.760;2023-07-16T06:46:31;99679.72;;;28.81;64.84
5753;BME280;2901;42.140;24.760;2023-07-16T06:48:56;99662.50;;;28.74;65.24
5753;BME280;2901;42.140;24.760;2023-07-16T06:51:22;99667.31;;;28.69;64.36
5753;BME280;2901;42.140;24.760;2023-07-16T06:53:47;99656.44;;;28.83;63.84
5753;BME280;2901;42.140;24.760;2023-07-16T06:56:12;99654.34;;;28.98;62.99
5753;BME280;2901;42.140;24.760;2023-07-16T06:58:38;99648.06;;;28.88;63.23
5753;BME280;2901;42.140;24.760;2023-07-16T07:01:03;99649.25;;;28.95;62.20
5753;BME280;2901;42.140;24.760;2023-07-16T07:03:28;99659.19;;;28.82;62.23
5753;BME280;2901;42.140;24.760;2023-07-16T07:05:54;99659.09;;;28.83;61.28
5753;BME280;2901;42.140;24.760;2023-07-16T07:08:19;99661.88;;;28.93;60.75
5753;BME280;2901;42.140;24.760;2023-07-16T07:10:46;99663.69;;;29.04;60.07
5753;BME280;2901;42.140;24.760;2023-07-16T07:13:12;99657.63;;;29.13;59.58
5753;BME280;2901;42.140;24.760;2023-07-16T07:15:37;99650.47;;;29.02;60.30
5753;BME280;2901;42.140;24.760;2023-07-16T07:18:03;99660.66;;;28.97;60.33
5753;BME280;2901;42.140;24.760;2023-07-16T07:20:28;99659.22;;;29.04;58.12
5753;BME280;2901;42.140;24.760;2023-07-16T07:22:53;99656.16;;;29.09;58.01
5753;BME280;2901;42.140;24.760;2023-07-16T07:25:19;99660.19;;;29.14;58.77
5753;BME280;2901;42.140;24.760;2023-07-16T07:27:45;99658.81;;;29.20;57.51
5753;BME280;2901;42.140;24.760;2023-07-16T07:30:10;99653.97;;;29.36;57.76
5753;BME280;2901;42.140;24.760;2023-07-16T07:32:37;99655.94;;;29.66;56.14
5753;BME280;2901;42.140;24.760;2023-07-16T07:35:04;99653.81;;;29.80;55.80
5753;BME280;2901;42.140;24.760;2023-07-16T07:37:29;99651.47;;;29.66;55.46
5753;BME280;2901;42.140;24.760;2023-07-16T07:39:55;99656.88;;;29.76;54.98
5753;BME280;2901;42.140;24.760;2023-07-16T07:42:20;99649.19;;;29.94;54.91
5753;BME280;2901;42.140;24.760;2023-07-16T07:44:45;99651.50;;;30.19;54.36
5753;BME280;2901;42.140;24.760;2023-07-16T07:47:11;99650.38;;;30.21;54.26
5753;BME280;2901;42.140;24.760;2023-07-16T07:49:36;99649.78;;;30.18;54.42
5753;BME280;2901;42.140;24.760;2023-07-16T07:52:02;99644.91;;;30.23;54.05
5753;BME280;2901;42.140;24.760;2023-07-16T07:54:27;99649.84;;;30.27;53.70
5753;BME280;2901;42.140;24.760;2023-07-16T07:56:52;99652.47;;;30.38;53.49
5753;BME280;2901;42.140;24.760;2023-07-16T07:59:18;99654.06;;;30.41;53.73
5753;BME280;2901;42.140;24.760;2023-07-16T08:01:43;99649.25;;;30.24;55.41
5753;BME280;2901;42.140;24.760;2023-07-16T08:04:08;99648.94;;;30.38;55.74
5753;BME280;2901;42.140;24.760;2023-07-16T08:06:34;99635.25;;;30.31;55.33
5753;BME280;2901;42.140;24.760;2023-07-16T08:08:59;99645.22;;;30.50;55.59
5753;BME280;2901;42.140;24.760;2023-07-16T08:11:24;99646.94;;;30.51;55.62
5753;BME280;2901;42.140;24.760;2023-07-16T08:13:50;99647.03;;;30.70;55.10
5753;BME280;2901;42.140;24.760;2023-07-16T08:16:15;99650.94;;;30.66;55.94
5753;BME280;2901;42.140;24.760;2023-07-16T08:18:41;99645.97;;;30.52;53.30
5753;BME280;2901;42.140;24.760;2023-07-16T08:21:06;99641.78;;;30.59;54.65
5753;BME280;2901;42.140;24.760;2023-07-16T08:23:31;99641.19;;;30.86;53.65
5753;BME280;2901;42.140;24.760;2023-07-16T08:25:57;99635.16;;;30.94;53.19
5753;BME280;2901;42.140;24.760;2023-07-16T08:28:23;99641.44;;;31.04;53.36
5753;BME280;2901;42.140;24.760;2023-07-16T08:30:48;99638.47;;;31.07;52.82
5753;BME280;2901;42.140;24.760;2023-07-16T08:33:14;99637.41;;;30.88;53.75
5753;BME280;2901;42.140;24.760;2023-07-16T08:35:40;99627.50;;;30.79;54.48
5753;BME280;2901;42.140;24.760;2023-07-16T08:38:06;99626.06;;;30.66;53.91
5753;BME280;2901;42.140;24.760;2023-07-16T08:40:38;99635.72;;;30.87;53.45
5753;BME280;2901;42.140;24.760;2023-07-16T08:43:05;99635.22;;;31.03;53.60
5753;BME280;2901;42.140;24.760;2023-07-16T08:45:35;99627.13;;;31.24;52.36
5753;BME280;2901;42.140;24.760;2023-07-16T08:48:05;99627.84;;;31.45;52.65
5753;BME280;2901;42.140;24.760;2023-07-16T08:50:30;99624.66;;;31.80;51.45
5753;BME280;2901;42.140;24.760;2023-07-16T08:52:57;99621.56;;;31.94;49.97
5753;BME280;2901;42.140;24.760;2023-07-16T08:55:23;99624.66;;;31.99;49.49
5753;BME280;2901;42.140;24.760;2023-07-16T08:57:48;99627.91;;;32.03;49.50
5753;BME280;2901;42.140;24.760;2023-07-16T09:00:17;99624.25;;;31.94;49.14
5753;BME280;2901;42.140;24.760;2023-07-16T09:02:42;99622.00;;;32.09;49.49
5753;BME280;2901;42.140;24.760;2023-07-16T09:05:09;99621.00;;;32.10;49.55
5753;BME280;2901;42.140;24.760;2023-07-16T09:07:35;99614.78;;;32.00;50.36
5753;BME280;2901;42.140;24.760;2023-07-16T09:10:02;99615.34;;;32.03;50.01
5753;BME280;2901;42.140;24.760;2023-07-16T09:12:28;99617.06;;;32.14;49.89
5753;BME280;2901;42.140;24.760;2023-07-16T09:14:55;99618.97;;;32.31;50.37
5753;BME280;2901;42.140;24.760;2023-07-16T09:17:22;99616.81;;;32.54;49.62
5753;BME280;2901;42.140;24.760;2023-07-16T09:19:49;99618.00;;;32.78;49.41
5753;BME280;2901;42.140;24.760;2023-07-16T09:22:17;99615.09;;;32.99;48.54
5753;BME280;2901;42.140;24.760;2023-07-16T09:24:45;99614.25;;;32.99;48.60
5753;BME280;2901;42.140;24.760;2023-07-16T09:27:11;99616.38;;;32.95;48.28
5753;BME280;2901;42.140;24.760;2023-07-16T09:29:38;99613.28;;;32.90;48.61
5753;BME280;2901;42.140;24.760;2023-07-16T09:32:03;99609.13;;;33.05;48.88
5753;BME280;2901;42.140;24.760;2023-07-16T09:34:30;99613.94;;;33.02;48.93
5753;BME280;2901;42.140;24.760;2023-07-16T09:37:00;99612.47;;;32.89;48.88
5753;BME280;2901;42.140;24.760;2023-07-16T09:39:26;99609.84;;;32.98;49.06
5753;BME280;2901;42.140;24.760;2023-07-16T09:41:52;99600.81;;;32.99;49.53
5753;BME280;2901;42.140;24.760;2023-07-16T09:44:18;99594.25;;;32.83;49.05
5753;BME280;2901;42.140;24.760;2023-07-16T09:46:45;99590.63;;;33.02;49.03
5753;BME280;2901;42.140;24.760;2023-07-16T09:49:11;99591.84;;;33.17;48.61
5753;BME280;2901;42.140;24.760;2023-07-16T09:51:38;99594.13;;;33.12;48.88
5753;BME280;2901;42.140;24.760;2023-07-16T09:54:04;99590.47;;;33.31;48.03
5753;BME280;2901;42.140;24.760;2023-07-16T09:56:36;99587.72;;;33.58;47.42
5753;BME280;2901;42.140;24.760;2023-07-16T09:59:06;99585.66;;;33.52;48.10
5753;BME280;2901;42.140;24.760;2023-07-16T10:01:33;99579.38;;;33.61;48.32
5753;BME280;2901;42.140;24.760;2023-07-16T10:04:11;99572.72;;;33.65;47.96
5753;BME280;2901;42.140;24.760;2023-07-16T10:06:36;99568.31;;;33.82;47.67
5753;BME280;2901;42.140;24.760;2023-07-16T10:09:02;99569.91;;;33.92;47.01
5753;BME280;2901;42.140;24.760;2023-07-16T10:11:27;99568.03;;;34.11;46.82
5753;BME280;2901;42.140;24.760;2023-07-16T10:13:52;99556.41;;;34.28;46.12
5753;BME280;2901;42.140;24.760;2023-07-16T10:16:21;99553.88;;;34.26;45.91
5753;BME280;2901;42.140;24.760;2023-07-16T10:18:53;99558.56;;;34.24;46.28
5753;BME280;2901;42.140;24.760;2023-07-16T10:21:23;99552.69;;;34.29;46.35
5753;BME280;2901;42.140;24.760;2023-07-16T10:23:57;99552.91;;;34.35;46.03
5753;BME280;2901;42.140;24.760;2023-07-16T10:26:27;99544.56;;;34.55;45.82
5753;BME280;2901;42.140;24.760;2023-07-16T10:28:53;99545.25;;;34.82;45.79
5753;BME280;2901;42.140;24.760;2023-07-16T10:31:25;99539.91;;;34.99;45.64
5753;BME280;2901;42.140;24.760;2023-07-16T10:34:03;99534.59;;;35.15;45.43
5753;BME280;2901;42.140;24.760;2023-07-16T10:36:39;99540.69;;;35.41;44.87
5753;BME280;2901;42.140;24.760;2023-07-16T10:39:05;99541.34;;;35.51;44.18
5753;BME280;2901;42.140;24.760;2023-07-16T10:41:31;99535.66;;;35.70;43.73
5753;BME280;2901;42.140;24.760;2023-07-16T10:44:00;99530.97;;;35.72;43.86
5753;BME280;2901;42.140;24.760;2023-07-16T10:46:26;99526.56;;;35.71;43.49
5753;BME280;2901;42.140;24.760;2023-07-16T10:48:52;99529.63;;;35.76;43.00
5753;BME280;2901;42.140;24.760;2023-07-16T10:51:17;99523.69;;;35.81;43.00
5753;BME280;2901;42.140;24.760;2023-07-16T10:53:43;99528.09;;;35.66;43.75
5753;BME280;2901;42.140;24.760;2023-07-16T10:56:09;99523.38;;;35.76;43.36
5753;BME280;2901;42.140;24.760;2023-07-16T10:58:36;99518.16;;;35.82;42.53
5753;BME280;2901;42.140;24.760;2023-07-16T11:01:02;99516.78;;;36.03;42.53
5753;BME280;2901;42.140;24.760;2023-07-16T11:03:27;99509.97;;;36.23;41.58
5753;BME280;2901;42.140;24.760;2023-07-16T11:05:53;99511.47;;;36.33;42.05
5753;BME280;2901;42.140;24.760;2023-07-16T11:08:25;99499.47;;;36.44;41.57
5753;BME280;2901;42.140;24.760;2023-07-16T11:10:57;99500.66;;;36.41;41.02
5753;BME280;2901;42.140;24.760;2023-07-16T11:13:31;99488.59;;;36.21;41.81
5753;BME280;2901;42.140;24.760;2023-07-16T11:15:56;99497.63;;;36.36;41.70
5753;BME280;2901;42.140;24.760;2023-07-16T11:18:26;99493.41;;;36.42;41.49
5753;BME280;2901;42.140;24.760;2023-07-16T11:20:52;99494.38;;;36.49;41.01
5753;BME280;2901;42.140;24.760;2023-07-16T11:23:18;99494.53;;;36.56;41.34
5753;BME280;2901;42.140;24.760;2023-07-16T11:25:47;99488.75;;;36.67;41.10
5753;BME280;2901;42.140;24.760;2023-07-16T11:28:13;99493.19;;;36.90;41.08
5753;BME280;2901;42.140;24.760;2023-07-16T11:30:38;99492.09;;;37.00;40.56
5753;BME280;2901;42.140;24.760;2023-07-16T11:33:12;99482.97;;;36.78;40.66
5753;BME280;2901;42.140;24.760;2023-07-16T11:35:38;99477.84;;;36.60;41.75
5753;BME280;2901;42.140;24.760;2023-07-16T11:38:07;99479.78;;;36.74;40.96
5753;BME280;2901;42.140;24.760;2023-07-16T11:40:36;99481.66;;;36.97;40.31
5753;BME280;2901;42.140;24.760;2023-07-16T11:43:10;99475.34;;;37.12;39.64
5753;BME280;2901;42.140;24.760;2023-07-16T11:45:35;99482.44;;;37.13;39.57
5753;BME280;2901;42.140;24.760;2023-07-16T11:48:01;99465.25;;;37.29;39.36
5753;BME280;2901;42.140;24.760;2023-07-16T11:50:28;99467.22;;;37.35;38.74
5753;BME280;2901;42.140;24.760;2023-07-16T11:52:56;99468.00;;;37.43;39.50
5753;BME280;2901;42.140;24.760;2023-07-16T11:55:22;99471.69;;;37.51;39.29
5753;BME280;2901;42.140;24.760;2023-07-16T11:57:48;99469.09;;;37.57;38.88
5753;BME280;2901;42.140;24.760;2023-07-16T12:00:14;99467.94;;;37.52;39.11
5753;BME280;2901;42.140;24.760;2023-07-16T12:02:39;99462.13;;;37.63;39.33
5753;BME280;2901;42.140;24.760;2023-07-16T12:05:04;99459.38;;;37.48;39.22
5753;BME280;2901;42.140;24.760;2023-07-16T12:07:35;99459.13;;;37.35;39.58
5753;BME280;2901;42.140;24.760;2023-07-16T12:10:03;99459.25;;;37.19;39.55
5753;BME280;2901;42.140;24.760;2023-07-16T12:12:29;99460.69;;;37.07;40.72
5753;BME280;2901;42.140;24.760;2023-07-16T12:14:54;99453.31;;;37.01;40.94
5753;BME280;2901;42.140;24.760;2023-07-16T12:17:20;99457.28;;;37.13;40.66
5753;BME280;2901;42.140;24.760;2023-07-16T12:19:45;99454.53;;;37.21;39.67
5753;BME280;2901;42.140;24.760;2023-07-16T12:22:11;99458.28;;;37.12;39.04
5753;BME280;2901;42.140;24.760;2023-07-16T12:24:37;99448.13;;;36.91;39.65
5753;BME280;2901;42.140;24.760;2023-07-16T12:27:02;99456.16;;;36.99;40.69
5753;BME280;2901;42.140;24.760;2023-07-16T12:29:28;99453.97;;;37.25;39.82
5753;BME280;2901;42.140;24.760;2023-07-16T12:31:53;99459.00;;;37.51;39.05
5753;BME280;2901;42.140;24.760;2023-07-16T12:34:18;99453.56;;;37.74;38.35
5753;BME280;2901;42.140;24.760;2023-07-16T12:36:44;99451.66;;;37.60;37.88
5753;BME280;2901;42.140;24.760;2023-07-16T12:39:09;99450.59;;;37.46;37.44
5753;BME280;2901;42.140;24.760;2023-07-16T12:41:34;99449.47;;;37.40;37.44
5753;BME280;2901;42.140;24.760;2023-07-16T12:44:00;99454.38;;;37.74;38.04
5753;BME280;2901;42.140;24.760;2023-07-16T12:46:25;99447.78;;;37.77;37.05
5753;BME280;2901;42.140;24.760;2023-07-16T12:48:51;99448.47;;;37.94;36.77
5753;BME280;2901;42.140;24.760;2023-07-16T12:51:16;99440.81;;;38.12;36.86
5753;BME280;2901;42.140;24.760;2023-07-16T12:53:41;99429.31;;;38.24;37.05
5753;BME280;2901;42.140;24.760;2023-07-16T12:56:09;99428.28;;;38.40;36.65
5753;BME280;2901;42.140;24.760;2023-07-16T12:58:34;99432.22;;;38.23;36.76
5753;BME280;2901;42.140;24.760;2023-07-16T13:00:59;99428.28;;;38.40;37.17
5753;BME280;2901;42.140;24.760;2023-07-16T13:03:25;99417.56;;;38.32;35.95
5753;BME280;2901;42.140;24.760;2023-07-16T13:05:50;99420.06;;;38.33;35.92
5753;BME280;2901;42.140;24.760;2023-07-16T13:08:16;99418.31;;;38.40;35.12
5753;BME280;2901;42.140;24.760;2023-07-16T13:10:41;99423.56;;;38.63;35.42